Shattuck, Oklahoma
Current Conditions -  °F | °C
As of 6:53 AM on Friday 28 Nov 2014 (Local Time) from KGAG Reporting Station
Clear Clear  
Wind Chill: 32°   Ceiling: Unl
Heat Index: 37°   Visibility: 10mi
Dew Point: 29°   Wind: 6mph
Humidity: 73%   Direction: 240°WSW
Pressure: 30"   Gusts: NA
Location:  36.28°N, 99.88°W
Report Text: KGAG 281253Z AUTO 24005KT 10SM CLR 03/M02 A3000 RMK AO2 SLP164 T00281017
Loading
Personal Weather Stations






























Interactive Weather Map New forecast layout! Learn more

10-Day Weather Forecast

Advertisements
Track Severe Weather on mobile